Unionville, Louisiana
Current Conditions -  °F | °C
As of 5:15 AM on Friday 24 Oct 2014 (Local Time) from KRSN Reporting Station
Clear Clear  
Wind Chill: 44°   Ceiling: Unl
Heat Index: 44°   Visibility: 10mi
Dew Point: 44°   Wind: 0mph
Humidity: 100%   Direction: NA
Pressure: 30.18"   Gusts: NA
Location:  32.6988°N, 92.6981°W
Report Text: KRSN 241015Z AUTO 00000KT 10SM CLR 07/07 A3018 RMK AO2 T00660066
Loading
Personal Weather Stations






























Interactive Weather Map
Tropical Storm Tracking
New forecast layout! Learn more

10-Day Weather Forecast

Advertisements
Track Severe Weather on mobile